sensor_id;sensor_type;location;lat;lon;timestamp;pressure;altitude;pressure_sealevel;temperature;humidity
22311;BME280;11323;49.610;11.016;2023-05-09T00:01:42;98532.00;;;19.25;57.27
22311;BME280;11323;49.610;11.016;2023-05-09T00:06:44;98540.94;;;19.24;57.29
22311;BME280;11323;49.610;11.016;2023-05-09T00:11:44;98538.31;;;19.24;57.38
22311;BME280;11323;49.610;11.016;2023-05-09T00:16:45;98539.75;;;19.27;57.38
22311;BME280;11323;49.610;11.016;2023-05-09T00:21:46;98537.28;;;19.25;57.17
22311;BME280;11323;49.610;11.016;2023-05-09T00:26:46;98537.69;;;19.22;57.20
22311;BME280;11323;49.610;11.016;2023-05-09T00:31:46;98517.91;;;19.18;57.11
22311;BME280;11323;49.610;11.016;2023-05-09T00:36:47;98520.19;;;19.21;57.36
22311;BME280;11323;49.610;11.016;2023-05-09T00:41:47;98518.53;;;19.20;57.22
22311;BME280;11323;49.610;11.016;2023-05-09T00:46:48;98514.91;;;19.21;57.30
22311;BME280;11323;49.610;11.016;2023-05-09T00:51:48;98504.91;;;19.17;57.18
22311;BME280;11323;49.610;11.016;2023-05-09T00:56:50;98499.41;;;19.18;57.21
22311;BME280;11323;49.610;11.016;2023-05-09T01:01:51;98492.50;;;19.17;57.13
22311;BME280;11323;49.610;11.016;2023-05-09T01:07:00;98490.69;;;19.18;57.29
22311;BME280;11323;49.610;11.016;2023-05-09T01:12:25;98488.06;;;19.18;57.29
22311;BME280;11323;49.610;11.016;2023-05-09T01:22:33;98471.38;;;19.17;57.35
22311;BME280;11323;49.610;11.016;2023-05-09T01:27:49;98478.66;;;19.15;57.49
22311;BME280;11323;49.610;11.016;2023-05-09T01:32:58;98470.13;;;19.13;57.48
22311;BME280;11323;49.610;11.016;2023-05-09T01:38:01;98462.38;;;19.11;57.28
22311;BME280;11323;49.610;11.016;2023-05-09T01:43:06;98470.94;;;19.13;57.23
22311;BME280;11323;49.610;11.016;2023-05-09T01:48:08;98469.28;;;19.12;57.36
22311;BME280;11323;49.610;11.016;2023-05-09T01:53:10;98458.94;;;19.11;57.21
22311;BME280;11323;49.610;11.016;2023-05-09T01:58:12;98459.94;;;19.10;57.33
22311;BME280;11323;49.610;11.016;2023-05-09T02:03:13;98455.47;;;19.10;57.50
22311;BME280;11323;49.610;11.016;2023-05-09T02:08:16;98455.88;;;19.07;57.44
22311;BME280;11323;49.610;11.016;2023-05-09T02:13:18;98446.72;;;19.10;57.25
22311;BME280;11323;49.610;11.016;2023-05-09T02:18:18;98454.66;;;19.10;57.28
22311;BME280;11323;49.610;11.016;2023-05-09T02:23:19;98453.81;;;19.09;57.46
22311;BME280;11323;49.610;11.016;2023-05-09T02:28:21;98464.59;;;19.08;57.33
22311;BME280;11323;49.610;11.016;2023-05-09T02:33:22;98471.50;;;19.09;57.34
22311;BME280;11323;49.610;11.016;2023-05-09T02:38:23;98458.69;;;19.06;57.33
22311;BME280;11323;49.610;11.016;2023-05-09T02:43:23;98454.22;;;19.06;57.36
22311;BME280;11323;49.610;11.016;2023-05-09T02:48:24;98451.75;;;19.05;57.34
22311;BME280;11323;49.610;11.016;2023-05-09T02:53:24;98449.75;;;19.07;57.50
22311;BME280;11323;49.610;11.016;2023-05-09T02:58:25;98450.75;;;19.06;57.55
22311;BME280;11323;49.610;11.016;2023-05-09T03:03:25;98444.84;;;19.04;57.33
22311;BME280;11323;49.610;11.016;2023-05-09T03:08:26;98443.84;;;19.05;57.38
22311;BME280;11323;49.610;11.016;2023-05-09T03:13:28;98441.59;;;19.02;57.38
22311;BME280;11323;49.610;11.016;2023-05-09T03:18:31;98436.50;;;19.00;57.21
22311;BME280;11323;49.610;11.016;2023-05-09T03:23:31;98437.31;;;19.01;57.19
22311;BME280;11323;49.610;11.016;2023-05-09T03:28:32;98435.25;;;18.96;57.35
22311;BME280;11323;49.610;11.016;2023-05-09T03:33:36;98438.31;;;19.00;57.32
22311;BME280;11323;49.610;11.016;2023-05-09T03:38:36;98439.34;;;18.98;57.39
22311;BME280;11323;49.610;11.016;2023-05-09T03:43:37;98432.22;;;18.99;57.36
22311;BME280;11323;49.610;11.016;2023-05-09T03:48:38;98424.50;;;18.97;57.48
22311;BME280;11323;49.610;11.016;2023-05-09T03:53:39;98428.13;;;18.96;57.46
22311;BME280;11323;49.610;11.016;2023-05-09T03:58:41;98437.06;;;18.95;57.34
22311;BME280;11323;49.610;11.016;2023-05-09T04:03:41;98437.06;;;18.95;57.40
22311;BME280;11323;49.610;11.016;2023-05-09T04:08:44;98431.16;;;18.93;57.53
22311;BME280;11323;49.610;11.016;2023-05-09T04:13:44;98435.44;;;18.94;57.49
22311;BME280;11323;49.610;11.016;2023-05-09T04:18:59;98441.09;;;18.91;57.39
22311;BME280;11323;49.610;11.016;2023-05-09T04:24:00;98447.97;;;18.92;57.65
22311;BME280;11323;49.610;11.016;2023-05-09T04:29:09;98443.72;;;18.91;57.53
22311;BME280;11323;49.610;11.016;2023-05-09T04:34:10;98427.25;;;18.89;57.65
22311;BME280;11323;49.610;11.016;2023-05-09T04:39:12;98427.03;;;18.91;57.37
22311;BME280;11323;49.610;11.016;2023-05-09T04:44:18;98442.88;;;18.91;57.43
22311;BME280;11323;49.610;11.016;2023-05-09T04:49:19;98437.81;;;18.89;57.41
22311;BME280;11323;49.610;11.016;2023-05-09T04:54:19;98437.81;;;18.89;57.54
22311;BME280;11323;49.610;11.016;2023-05-09T04:59:22;98438.81;;;18.88;57.54
22311;BME280;11323;49.610;11.016;2023-05-09T05:04:23;98436.19;;;18.88;57.74
22311;BME280;11323;49.610;11.016;2023-05-09T05:09:24;98432.91;;;18.86;57.57
22311;BME280;11323;49.610;11.016;2023-05-09T05:14:25;98439.81;;;18.87;57.93
22311;BME280;11323;49.610;11.016;2023-05-09T05:19:25;98424.34;;;18.84;57.89
22311;BME280;11323;49.610;11.016;2023-05-09T05:24:26;98433.91;;;18.85;57.89
22311;BME280;11323;49.610;11.016;2023-05-09T05:29:27;98436.97;;;18.89;57.89
22311;BME280;11323;49.610;11.016;2023-05-09T05:34:27;98441.47;;;18.88;58.11
22311;BME280;11323;49.610;11.016;2023-05-09T05:39:28;98437.81;;;18.89;58.07
22311;BME280;11323;49.610;11.016;2023-05-09T05:44:28;98426.03;;;18.92;58.05
22311;BME280;11323;49.610;11.016;2023-05-09T05:49:30;98422.66;;;18.98;57.79
22311;BME280;11323;49.610;11.016;2023-05-09T05:54:30;98406.84;;;19.05;57.87
22311;BME280;11323;49.610;11.016;2023-05-09T05:59:31;98409.75;;;19.10;57.34
22311;BME280;11323;49.610;11.016;2023-05-09T06:04:32;98401.81;;;19.10;57.10
22311;BME280;11323;49.610;11.016;2023-05-09T06:09:33;98402.66;;;19.17;56.72
22311;BME280;11323;49.610;11.016;2023-05-09T06:14:33;98389.25;;;19.12;56.89
22311;BME280;11323;49.610;11.016;2023-05-09T06:19:34;98390.25;;;19.11;57.01
22311;BME280;11323;49.610;11.016;2023-05-09T06:24:36;98392.63;;;19.06;57.10
22311;BME280;11323;49.610;11.016;2023-05-09T06:29:37;98390.44;;;19.09;57.48
22311;BME280;11323;49.610;11.016;2023-05-09T06:34:37;98399.03;;;19.18;57.06
22311;BME280;11323;49.610;11.016;2023-05-09T06:39:37;98388.50;;;19.25;57.28
22311;BME280;11323;49.610;11.016;2023-05-09T06:44:38;98377.50;;;19.21;57.43
22311;BME280;11323;49.610;11.016;2023-05-09T06:49:38;98370.78;;;19.19;57.44
22311;BME280;11323;49.610;11.016;2023-05-09T06:54:38;98364.69;;;19.18;57.51
22311;BME280;11323;49.610;11.016;2023-05-09T06:59:39;98348.38;;;19.08;53.31
22311;BME280;11323;49.610;11.016;2023-05-09T07:04:39;98339.09;;;18.90;52.85
22311;BME280;11323;49.610;11.016;2023-05-09T07:09:40;98340.97;;;18.68;51.14
22311;BME280;11323;49.610;11.016;2023-05-09T07:14:40;98337.63;;;18.59;52.87
22311;BME280;11323;49.610;11.016;2023-05-09T07:19:41;98340.00;;;18.47;51.40
22311;BME280;11323;49.610;11.016;2023-05-09T07:24:41;98326.88;;;18.32;50.76
22311;BME280;11323;49.610;11.016;2023-05-09T07:29:43;98328.75;;;18.39;50.68
22311;BME280;11323;49.610;11.016;2023-05-09T07:34:43;98330.16;;;18.34;49.49
22311;BME280;11323;49.610;11.016;2023-05-09T07:39:44;98318.44;;;18.44;50.95
22311;BME280;11323;49.610;11.016;2023-05-09T07:44:45;98317.63;;;18.43;49.51
22311;BME280;11323;49.610;11.016;2023-05-09T07:49:45;98311.47;;;18.36;49.66
22311;BME280;11323;49.610;11.016;2023-05-09T07:54:47;98302.34;;;18.39;49.96
22311;BME280;11323;49.610;11.016;2023-05-09T07:59:47;98297.34;;;18.44;49.13
22311;BME280;11323;49.610;11.016;2023-05-09T08:04:48;98292.91;;;18.51;49.52
22311;BME280;11323;49.610;11.016;2023-05-09T08:09:48;98277.44;;;18.48;48.88
22311;BME280;11323;49.610;11.016;2023-05-09T08:14:48;98282.13;;;18.46;48.86
22311;BME280;11323;49.610;11.016;2023-05-09T08:19:49;98277.22;;;18.43;49.63
22311;BME280;11323;49.610;11.016;2023-05-09T08:24:49;98267.09;;;18.46;49.90
22311;BME280;11323;49.610;11.016;2023-05-09T08:29:49;98257.56;;;18.45;48.01
22311;BME280;11323;49.610;11.016;2023-05-09T08:34:50;98254.38;;;18.57;49.72
22311;BME280;11323;49.610;11.016;2023-05-09T08:39:51;98238.59;;;18.63;50.66
22311;BME280;11323;49.610;11.016;2023-05-09T08:44:51;98235.56;;;18.66;51.17
22311;BME280;11323;49.610;11.016;2023-05-09T08:49:52;98225.66;;;18.75;51.52
22311;BME280;11323;49.610;11.016;2023-05-09T08:54:53;98221.19;;;18.76;51.65
22311;BME280;11323;49.610;11.016;2023-05-09T08:59:55;98199.69;;;18.79;51.66
22311;BME280;11323;49.610;11.016;2023-05-09T09:04:55;98205.56;;;18.81;51.88
22311;BME280;11323;49.610;11.016;2023-05-09T09:09:56;98204.56;;;18.82;51.93
22311;BME280;11323;49.610;11.016;2023-05-09T09:15:02;98202.94;;;18.81;52.17
22311;BME280;11323;49.610;11.016;2023-05-09T09:20:04;98202.13;;;18.80;52.55
22311;BME280;11323;49.610;11.016;2023-05-09T09:25:08;98186.28;;;18.80;52.41
22311;BME280;11323;49.610;11.016;2023-05-09T09:30:10;98181.81;;;18.81;52.41
22311;BME280;11323;49.610;11.016;2023-05-09T09:35:11;98172.88;;;18.82;52.74
22311;BME280;11323;49.610;11.016;2023-05-09T09:40:11;98168.59;;;18.81;52.62
22311;BME280;11323;49.610;11.016;2023-05-09T09:45:17;98163.31;;;18.81;52.86
22311;BME280;11323;49.610;11.016;2023-05-09T09:50:18;98141.19;;;18.82;53.06
22311;BME280;11323;49.610;11.016;2023-05-09T09:55:23;98135.91;;;18.82;53.16
22311;BME280;11323;49.610;11.016;2023-05-09T10:00:25;98127.59;;;18.85;52.99
22311;BME280;11323;49.610;11.016;2023-05-09T10:05:28;98130.25;;;18.85;53.19
22311;BME280;11323;49.610;11.016;2023-05-09T10:10:31;98114.00;;;18.81;53.20
22311;BME280;11323;49.610;11.016;2023-05-09T10:15:34;98111.13;;;18.83;53.40
22311;BME280;11323;49.610;11.016;2023-05-09T10:20:36;98098.78;;;18.83;53.51
22311;BME280;11323;49.610;11.016;2023-05-09T10:25:47;98095.91;;;18.85;53.41
22311;BME280;11323;49.610;11.016;2023-05-09T10:30:55;98083.56;;;18.86;53.36
22311;BME280;11323;49.610;11.016;2023-05-09T10:35:57;98074.81;;;18.92;53.99
22311;BME280;11323;49.610;11.016;2023-05-09T10:41:00;98055.53;;;18.91;54.47
22311;BME280;11323;49.610;11.016;2023-05-09T10:46:03;98054.50;;;18.92;54.31
22311;BME280;11323;49.610;11.016;2023-05-09T10:51:04;98048.41;;;18.92;54.24
22311;BME280;11323;49.610;11.016;2023-05-09T10:56:05;98034.41;;;18.98;54.72
22311;BME280;11323;49.610;11.016;2023-05-09T11:01:05;98024.28;;;19.02;54.59
22311;BME280;11323;49.610;11.016;2023-05-09T11:06:06;98006.00;;;19.00;54.40
22311;BME280;11323;49.610;11.016;2023-05-09T11:11:06;97994.81;;;18.98;54.32
22311;BME280;11323;49.610;11.016;2023-05-09T11:16:08;97997.25;;;19.00;54.48
22311;BME280;11323;49.610;11.016;2023-05-09T11:21:08;97984.47;;;18.96;54.29
22311;BME280;11323;49.610;11.016;2023-05-09T11:26:09;97966.97;;;18.95;54.29
22311;BME280;11323;49.610;11.016;2023-05-09T11:31:17;97972.66;;;18.99;54.42
22311;BME280;11323;49.610;11.016;2023-05-09T11:36:26;97955.00;;;19.00;54.25
22311;BME280;11323;49.610;11.016;2023-05-09T11:41:42;97968.22;;;19.00;54.24
22311;BME280;11323;49.610;11.016;2023-05-09T11:46:44;97950.34;;;19.02;54.24
22311;BME280;11323;49.610;11.016;2023-05-09T11:51:45;97936.53;;;19.00;54.43
22311;BME280;11323;49.610;11.016;2023-05-09T11:56:45;97929.22;;;19.02;54.28
22311;BME280;11323;49.610;11.016;2023-05-09T12:01:47;97916.59;;;19.04;54.33
22311;BME280;11323;49.610;11.016;2023-05-09T12:06:47;97907.66;;;19.05;54.14
22311;BME280;11323;49.610;11.016;2023-05-09T12:11:50;97890.19;;;19.04;54.04
22311;BME280;11323;49.610;11.016;2023-05-09T12:16:51;97893.44;;;19.06;54.47
22311;BME280;11323;49.610;11.016;2023-05-09T12:22:00;97891.41;;;19.08;54.36
22311;BME280;11323;49.610;11.016;2023-05-09T12:27:01;97882.47;;;19.09;54.35
22311;BME280;11323;49.610;11.016;2023-05-09T12:32:02;97873.53;;;19.10;54.38
22311;BME280;11323;49.610;11.016;2023-05-09T12:37:02;97859.31;;;19.11;54.29
22311;BME280;11323;49.610;11.016;2023-05-09T12:42:11;97852.00;;;19.13;54.28
22311;BME280;11323;49.610;11.016;2023-05-09T12:47:11;97844.47;;;19.10;54.39
22311;BME280;11323;49.610;11.016;2023-05-09T12:52:16;97841.00;;;19.16;54.45
22311;BME280;11323;49.610;11.016;2023-05-09T12:57:22;97832.47;;;19.14;54.37
22311;BME280;11323;49.610;11.016;2023-05-09T13:02:25;97820.47;;;19.18;54.52
22311;BME280;11323;49.610;11.016;2023-05-09T13:07:25;97817.84;;;19.18;54.48
22311;BME280;11323;49.610;11.016;2023-05-09T13:12:26;97808.88;;;19.19;55.07
22311;BME280;11323;49.610;11.016;2023-05-09T13:17:26;97800.75;;;19.21;54.51
22311;BME280;11323;49.610;11.016;2023-05-09T13:22:27;97785.31;;;19.24;55.20
22311;BME280;11323;49.610;11.016;2023-05-09T13:27:27;97777.97;;;19.26;55.10
22311;BME280;11323;49.610;11.016;2023-05-09T13:32:28;97775.13;;;19.28;54.76
22311;BME280;11323;49.610;11.016;2023-05-09T13:37:28;97771.66;;;19.27;54.54
22311;BME280;11323;49.610;11.016;2023-05-09T13:42:28;97758.69;;;19.26;54.42
22311;BME280;11323;49.610;11.016;2023-05-09T13:47:29;97760.09;;;19.28;54.77
22311;BME280;11323;49.610;11.016;2023-05-09T13:52:29;97754.59;;;19.30;54.57
22311;BME280;11323;49.610;11.016;2023-05-09T13:57:30;97745.84;;;19.29;54.66
22311;BME280;11323;49.610;11.016;2023-05-09T14:02:30;97741.78;;;19.34;54.59
22311;BME280;11323;49.610;11.016;2023-05-09T14:07:31;97726.72;;;19.34;54.63
22311;BME280;11323;49.610;11.016;2023-05-09T14:12:31;97733.63;;;19.35;54.28
22311;BME280;11323;49.610;11.016;2023-05-09T14:17:32;97720.66;;;19.34;54.09
22311;BME280;11323;49.610;11.016;2023-05-09T14:22:32;97710.88;;;19.34;54.50
22311;BME280;11323;49.610;11.016;2023-05-09T14:27:32;97705.97;;;19.38;54.48
22311;BME280;11323;49.610;11.016;2023-05-09T14:32:36;97697.47;;;19.36;54.51
22311;BME280;11323;49.610;11.016;2023-05-09T14:37:36;97681.63;;;19.36;53.96
22311;BME280;11323;49.610;11.016;2023-05-09T14:42:36;97683.81;;;19.39;54.54
22311;BME280;11323;49.610;11.016;2023-05-09T14:47:37;97674.66;;;19.41;54.54
22311;BME280;11323;49.610;11.016;2023-05-09T14:52:38;97662.84;;;19.44;54.50
22311;BME280;11323;49.610;11.016;2023-05-09T14:57:38;97657.34;;;19.45;54.94
22311;BME280;11323;49.610;11.016;2023-05-09T15:02:38;97635.41;;;19.45;54.31
22311;BME280;11323;49.610;11.016;2023-05-09T15:07:39;97641.06;;;19.49;54.45
22311;BME280;11323;49.610;11.016;2023-05-09T15:12:39;97623.38;;;19.49;54.12
22311;BME280;11323;49.610;11.016;2023-05-09T15:17:39;97625.00;;;19.50;54.43
22311;BME280;11323;49.610;11.016;2023-05-09T15:22:40;97621.75;;;19.48;54.47
22311;BME280;11323;49.610;11.016;2023-05-09T15:27:41;97612.38;;;19.52;54.73
22311;BME280;11323;49.610;11.016;2023-05-09T15:32:41;97593.72;;;19.47;54.48
22311;BME280;11323;49.610;11.016;2023-05-09T15:37:42;97608.28;;;19.56;54.48
22311;BME280;11323;49.610;11.016;2023-05-09T15:42:42;97593.66;;;19.54;54.53
22311;BME280;11323;49.610;11.016;2023-05-09T15:47:43;97597.50;;;19.58;54.62
22311;BME280;11323;49.610;11.016;2023-05-09T15:52:43;97588.31;;;19.60;53.87
22311;BME280;11323;49.610;11.016;2023-05-09T15:57:43;97584.88;;;19.60;54.77
22311;BME280;11323;49.610;11.016;2023-05-09T16:02:44;97582.59;;;19.64;54.52
22311;BME280;11323;49.610;11.016;2023-05-09T16:07:45;97568.78;;;19.62;54.62
22311;BME280;11323;49.610;11.016;2023-05-09T16:12:46;97574.03;;;19.68;54.33
22311;BME280;11323;49.610;11.016;2023-05-09T16:17:46;97563.44;;;19.68;54.46
22311;BME280;11323;49.610;11.016;2023-05-09T16:22:47;97559.78;;;19.69;54.47
22311;BME280;11323;49.610;11.016;2023-05-09T16:27:47;97557.97;;;19.70;54.56
22311;BME280;11323;49.610;11.016;2023-05-09T16:32:47;97543.69;;;19.71;54.34
22311;BME280;11323;49.610;11.016;2023-05-09T16:37:48;97542.66;;;19.72;54.39
22311;BME280;11323;49.610;11.016;2023-05-09T16:42:48;97538.41;;;19.71;54.24
22311;BME280;11323;49.610;11.016;2023-05-09T16:47:48;97533.72;;;19.73;54.50
22311;BME280;11323;49.610;11.016;2023-05-09T16:52:50;97520.94;;;19.70;54.58
22311;BME280;11323;49.610;11.016;2023-05-09T16:57:50;97528.44;;;19.73;54.36
22311;BME280;11323;49.610;11.016;2023-05-09T17:02:51;97519.47;;;19.74;54.24
22311;BME280;11323;49.610;11.016;2023-05-09T17:07:51;97505.66;;;19.72;54.72
22311;BME280;11323;49.610;11.016;2023-05-09T17:12:52;97502.81;;;19.73;54.34
22311;BME280;11323;49.610;11.016;2023-05-09T17:17:53;97491.56;;;19.78;55.26
22311;BME280;11323;49.610;11.016;2023-05-09T17:22:55;97483.78;;;19.83;55.79
22311;BME280;11323;49.610;11.016;2023-05-09T17:27:55;97477.06;;;19.87;55.87
22311;BME280;11323;49.610;11.016;2023-05-09T17:32:55;97477.06;;;19.87;55.66
22311;BME280;11323;49.610;11.016;2023-05-09T17:37:56;97475.00;;;19.89;55.86
22311;BME280;11323;49.610;11.016;2023-05-09T17:42:56;97469.28;;;19.93;55.78
22311;BME280;11323;49.610;11.016;2023-05-09T17:47:57;97469.28;;;19.93;55.58
22311;BME280;11323;49.610;11.016;2023-05-09T17:53:00;97466.41;;;19.94;55.70
22311;BME280;11323;49.610;11.016;2023-05-09T17:58:00;97453.44;;;19.93;55.62
22311;BME280;11323;49.610;11.016;2023-05-09T18:03:01;97463.53;;;19.96;55.84
22311;BME280;11323;49.610;11.016;2023-05-09T18:08:03;97455.00;;;19.94;55.46
22311;BME280;11323;49.610;11.016;2023-05-09T18:13:03;97451.22;;;19.89;55.33
22311;BME280;11323;49.610;11.016;2023-05-09T18:18:04;97444.91;;;19.90;55.31
22311;BME280;11323;49.610;11.016;2023-05-09T18:23:07;97447.53;;;19.90;55.26
22311;BME280;11323;49.610;11.016;2023-05-09T18:28:08;97444.91;;;19.90;55.27
22311;BME280;11323;49.610;11.016;2023-05-09T18:33:08;97443.06;;;19.91;55.46
22311;BME280;11323;49.610;11.016;2023-05-09T18:38:09;97438.59;;;19.92;55.34
22311;BME280;11323;49.610;11.016;2023-05-09T18:43:10;97433.28;;;19.92;55.42
22311;BME280;11323;49.610;11.016;2023-05-09T18:48:10;97445.84;;;19.96;55.76
22311;BME280;11323;49.610;11.016;2023-05-09T18:53:11;97448.25;;;19.98;55.84
22311;BME280;11323;49.610;11.016;2023-05-09T18:58:11;97442.97;;;19.98;56.14
22311;BME280;11323;49.610;11.016;2023-05-09T19:03:12;97448.25;;;19.98;56.24
22311;BME280;11323;49.610;11.016;2023-05-09T19:08:13;97450.03;;;20.04;56.24
22311;BME280;11323;49.610;11.016;2023-05-09T19:13:13;97452.81;;;20.09;56.47
22311;BME280;11323;49.610;11.016;2023-05-09T19:18:13;97444.88;;;20.09;56.66
22311;BME280;11323;49.610;11.016;2023-05-09T19:23:14;97450.16;;;20.09;56.63
22311;BME280;11323;49.610;11.016;2023-05-09T19:28:14;97458.09;;;20.09;56.56
22311;BME280;11323;49.610;11.016;2023-05-09T19:33:16;97457.50;;;20.07;56.48
22311;BME280;11323;49.610;11.016;2023-05-09T19:38:17;97464.41;;;20.08;56.52
22311;BME280;11323;49.610;11.016;2023-05-09T19:43:17;97460.97;;;20.08;56.56
22311;BME280;11323;49.610;11.016;2023-05-09T19:48:17;97475.81;;;20.09;56.60
22311;BME280;11323;49.610;11.016;2023-05-09T19:53:18;97469.13;;;20.06;56.42
22311;BME280;11323;49.610;11.016;2023-05-09T19:58:18;97479.25;;;20.09;56.41
22311;BME280;11323;49.610;11.016;2023-05-09T20:03:19;97475.81;;;20.09;56.48
22311;BME280;11323;49.610;11.016;2023-05-09T20:08:19;97472.94;;;20.10;56.46
22311;BME280;11323;49.610;11.016;2023-05-09T20:13:20;97478.22;;;20.10;56.46
22311;BME280;11323;49.610;11.016;2023-05-09T20:18:20;97478.81;;;20.12;56.45
22311;BME280;11323;49.610;11.016;2023-05-09T20:23:21;97480.88;;;20.10;56.59
22311;BME280;11323;49.610;11.016;2023-05-09T20:28:21;97480.88;;;20.10;56.66
22311;BME280;11323;49.610;11.016;2023-05-09T20:33:22;97485.13;;;20.11;56.57
22311;BME280;11323;49.610;11.016;2023-05-09T20:38:22;97488.56;;;20.12;56.52
22311;BME280;11323;49.610;11.016;2023-05-09T20:43:22;97482.50;;;20.11;56.83
22311;BME280;11323;49.610;11.016;2023-05-09T20:48:23;97476.38;;;20.11;57.14
22311;BME280;11323;49.610;11.016;2023-05-09T20:53:23;97471.09;;;20.11;56.96
22311;BME280;11323;49.610;11.016;2023-05-09T20:58:35;97469.25;;;20.11;56.91
22311;BME280;11323;49.610;11.016;2023-05-09T21:03:35;97471.91;;;20.11;56.96
22311;BME280;11323;49.610;11.016;2023-05-09T21:08:35;97459.72;;;20.10;57.05
22311;BME280;11323;49.610;11.016;2023-05-09T21:13:36;97456.47;;;20.08;56.97
22311;BME280;11323;49.610;11.016;2023-05-09T21:18:36;97447.94;;;20.06;57.04
22311;BME280;11323;49.610;11.016;2023-05-09T21:23:37;97457.50;;;20.07;56.98
22311;BME280;11323;49.610;11.016;2023-05-09T21:28:37;97493.06;;;20.11;56.53
22311;BME280;11323;49.610;11.016;2023-05-09T21:33:37;97506.91;;;20.13;56.87
22311;BME280;11323;49.610;11.016;2023-05-09T21:38:38;97513.34;;;20.17;56.99
22311;BME280;11323;49.610;11.016;2023-05-09T21:43:38;97520.47;;;20.17;56.91
22311;BME280;11323;49.610;11.016;2023-05-09T21:48:38;97516.81;;;20.18;56.81
22311;BME280;11323;49.610;11.016;2023-05-09T21:53:39;97513.34;;;20.17;56.90
22311;BME280;11323;49.610;11.016;2023-05-09T21:58:39;97508.03;;;20.17;56.99
22311;BME280;11323;49.610;11.016;2023-05-09T22:03:40;97505.88;;;20.14;57.10
22311;BME280;11323;49.610;11.016;2023-05-09T22:08:40;97503.06;;;20.09;56.68
22311;BME280;11323;49.610;11.016;2023-05-09T22:13:40;97500.41;;;20.09;56.92
22311;BME280;11323;49.610;11.016;2023-05-09T22:18:41;97498.22;;;20.06;56.97
22311;BME280;11323;49.610;11.016;2023-05-09T22:23:42;97497.66;;;20.04;57.08
22311;BME280;11323;49.610;11.016;2023-05-09T22:28:42;97492.78;;;20.01;56.87
22311;BME280;11323;49.610;11.016;2023-05-09T22:33:43;97486.47;;;20.02;57.25
22311;BME280;11323;49.610;11.016;2023-05-09T22:38:43;97481.63;;;19.99;56.88
22311;BME280;11323;49.610;11.016;2023-05-09T22:43:43;97478.19;;;19.98;56.70
22311;BME280;11323;49.610;11.016;2023-05-09T22:48:44;97468.03;;;19.95;56.89
22311;BME280;11323;49.610;11.016;2023-05-09T22:53:44;97475.72;;;19.97;56.93
22311;BME280;11323;49.610;11.016;2023-05-09T22:58:45;97468.22;;;19.94;56.74
22311;BME280;11323;49.610;11.016;2023-05-09T23:03:45;97467.22;;;19.95;57.00
22311;BME280;11323;49.610;11.016;2023-05-09T23:08:46;97465.59;;;19.94;56.79
22311;BME280;11323;49.610;11.016;2023-05-09T23:13:46;97455.25;;;19.92;56.84
22311;BME280;11323;49.610;11.016;2023-05-09T23:18:46;97450.19;;;19.90;56.88
22311;BME280;11323;49.610;11.016;2023-05-09T23:23:47;97446.94;;;19.88;56.65
22311;BME280;11323;49.610;11.016;2023-05-09T23:28:47;97451.22;;;19.89;56.73
22311;BME280;11323;49.610;11.016;2023-05-09T23:33:47;97430.50;;;19.86;56.78
22311;BME280;11323;49.610;11.016;2023-05-09T23:38:48;97432.13;;;19.87;56.41
22311;BME280;11323;49.610;11.016;2023-05-09T23:43:48;97427.22;;;19.84;56.70
22311;BME280;11323;49.610;11.016;2023-05-09T23:48:48;97434.75;;;19.87;56.69
22311;BME280;11323;49.610;11.016;2023-05-09T23:53:49;97440.44;;;19.84;56.87
22311;BME280;11323;49.610;11.016;2023-05-09T23:58:49;97431.94;;;19.82;56.75
